createdAt,value
2022-09-23T00:01:01.650Z,15.30
2022-09-23T00:03:51.572Z,15.00
2022-09-23T00:06:41.315Z,15.10
2022-09-23T00:09:31.935Z,15.40
2022-09-23T00:12:21.070Z,15.60
2022-09-23T00:15:11.709Z,15.70
2022-09-23T00:18:00.581Z,15.80
2022-09-23T00:20:50.095Z,15.90
2022-09-23T00:23:40.702Z,15.90
2022-09-23T00:26:31.239Z,16.00
2022-09-23T00:29:20.847Z,16.10
2022-09-23T00:32:10.005Z,16.10
2022-09-23T00:34:59.363Z,16.00
2022-09-23T00:37:48.570Z,15.90
2022-09-23T00:40:37.891Z,15.80
2022-09-23T00:43:41.755Z,15.50
2022-09-23T00:46:37.247Z,15.20
2022-09-23T00:49:30.763Z,15.40
2022-09-23T00:52:24.508Z,15.50
2022-09-23T00:55:19.416Z,15.50
2022-09-23T00:58:12.086Z,15.20
2022-09-23T01:01:04.399Z,15.30
2022-09-23T01:03:56.222Z,15.40
2022-09-23T01:06:45.661Z,15.40
2022-09-23T01:09:35.545Z,15.40
2022-09-23T01:12:48.345Z,15.50
2022-09-23T01:15:45.549Z,15.60
2022-09-23T01:18:43.941Z,15.70
2022-09-23T01:21:43.909Z,15.70
2022-09-23T01:24:49.639Z,15.80
2022-09-23T01:27:52.592Z,15.80
2022-09-23T01:30:49.812Z,15.80
2022-09-23T01:33:47.588Z,15.80
2022-09-23T01:36:42.999Z,15.80
2022-09-23T01:39:37.149Z,15.90
2022-09-23T01:42:32.950Z,15.80
2022-09-23T01:45:27.557Z,15.80
2022-09-23T01:48:22.885Z,15.90
2022-09-23T01:51:16.740Z,15.90
2022-09-23T01:54:08.677Z,15.90
2022-09-23T01:57:04.258Z,15.90
2022-09-23T01:59:57.800Z,15.90
2022-09-23T02:02:52.958Z,15.90
2022-09-23T02:05:48.018Z,15.90
2022-09-23T02:08:43.486Z,15.80
2022-09-23T02:11:36.447Z,15.80
2022-09-23T02:14:31.010Z,15.80
2022-09-23T02:17:26.814Z,15.70
2022-09-23T02:20:21.163Z,15.70
2022-09-23T02:23:14.871Z,15.60
2022-09-23T02:26:10.499Z,15.60
2022-09-23T02:29:09.867Z,15.60
2022-09-23T02:32:04.119Z,15.50
2022-09-23T02:35:01.334Z,15.40
2022-09-23T06:57:14.926Z,14.10
2022-09-23T07:00:04.914Z,14.40
2022-09-23T07:02:55.095Z,14.50
2022-09-23T07:05:44.420Z,14.30
2022-09-23T07:17:05.709Z,15.20
2022-09-23T07:22:45.791Z,15.50
2022-09-23T07:25:36.947Z,15.70
2022-09-23T07:28:27.262Z,15.80
2022-09-23T07:31:32.617Z,16.00
2022-09-23T07:34:26.575Z,16.10
2022-09-23T07:37:15.651Z,16.30
2022-09-23T07:40:04.654Z,16.20
2022-09-23T07:42:54.129Z,16.20
2022-09-23T07:45:43.926Z,16.50
2022-09-23T07:48:34.867Z,16.60
2022-09-23T07:51:29.846Z,16.70
2022-09-23T07:54:21.546Z,16.80
2022-09-23T07:57:10.641Z,16.90
2022-09-23T08:00:01.152Z,16.90
2022-09-23T08:02:53.012Z,17.10
2022-09-23T08:05:44.684Z,17.20
2022-09-23T08:08:33.302Z,17.50
2022-09-23T08:11:24.054Z,17.70
2022-09-23T08:14:14.423Z,17.80
2022-09-23T08:17:03.485Z,18.00
2022-09-23T08:19:53.115Z,17.80
2022-09-23T08:22:43.963Z,17.80
2022-09-23T08:25:34.743Z,18.00
2022-09-23T08:28:24.305Z,18.20
2022-09-23T08:31:14.421Z,18.40
2022-09-23T08:34:03.393Z,18.50
2022-09-23T08:36:53.443Z,18.70
2022-09-23T08:39:44.649Z,18.80
2022-09-23T08:42:36.547Z,18.80
2022-09-23T08:45:27.705Z,18.80
2022-09-23T08:48:21.372Z,18.90
2022-09-23T08:51:15.996Z,18.90
2022-09-23T08:54:05.543Z,18.90
2022-09-23T08:56:59.648Z,18.90
2022-09-23T09:08:25.237Z,19.30
2022-09-23T09:11:16.852Z,19.30
2022-09-23T09:14:24.929Z,19.40
2022-09-23T09:17:24.903Z,19.40
2022-09-23T09:20:24.884Z,19.50
2022-09-23T09:23:23.114Z,19.60
2022-09-23T09:26:17.972Z,19.60
2022-09-23T09:29:31.184Z,19.60
2022-09-23T09:32:48.743Z,19.70
2022-09-23T09:35:43.687Z,19.70
2022-09-23T09:38:32.889Z,19.70
2022-09-23T09:41:24.741Z,19.80
2022-09-23T09:44:24.462Z,19.90
2022-09-23T09:47:29.901Z,20.00
2022-09-23T09:50:22.227Z,20.00
2022-09-23T09:53:22.340Z,20.10
2022-09-23T09:56:14.342Z,20.20
2022-09-23T09:59:13.003Z,20.40
2022-09-23T10:02:23.329Z,20.40
2022-09-23T10:05:28.669Z,20.50
2022-09-23T10:08:24.850Z,20.60
2022-09-23T10:11:16.878Z,20.70
2022-09-23T10:17:05.777Z,20.90
2022-09-23T10:20:01.037Z,21.00
2022-09-23T10:22:51.269Z,21.10
2022-09-23T10:25:41.932Z,21.30
2022-09-23T10:28:55.881Z,21.40
2022-09-23T10:31:45.548Z,21.50
2022-09-23T10:34:36.263Z,21.60
2022-09-23T10:37:33.706Z,21.70
2022-09-23T10:40:49.111Z,21.80
2022-09-23T10:46:56.014Z,22.10
2022-09-23T10:50:05.507Z,22.30
2022-09-23T10:53:10.620Z,22.40
2022-09-23T10:56:20.059Z,22.50
2022-09-23T10:59:27.418Z,22.60
2022-09-23T11:02:53.005Z,22.80
2022-09-23T11:05:52.603Z,22.80
2022-09-23T11:08:59.286Z,23.00
2022-09-23T11:12:02.814Z,23.10
2022-09-23T11:15:06.812Z,23.30
2022-09-23T11:18:26.807Z,23.60
2022-09-23T11:21:41.841Z,23.70
2022-09-23T11:24:58.282Z,24.00
2022-09-23T11:28:06.611Z,24.20
2022-09-23T11:31:06.338Z,24.40
2022-09-23T11:34:05.865Z,24.50
2022-09-23T11:37:03.533Z,24.70
2022-09-23T11:40:03.634Z,24.90
2022-09-23T11:43:04.848Z,25.10
2022-09-23T11:46:02.425Z,25.20
2022-09-23T11:49:01.401Z,25.40
2022-09-23T11:52:03.317Z,25.50
2022-09-23T11:55:03.129Z,25.70
2022-09-23T11:58:01.419Z,25.80
2022-09-23T12:01:00.822Z,25.90
2022-09-23T12:04:00.902Z,26.00
2022-09-23T12:07:03.469Z,26.00
2022-09-23T12:10:05.500Z,26.00
2022-09-23T12:13:05.130Z,26.10
2022-09-23T12:16:15.158Z,26.20
2022-09-23T12:22:11.220Z,26.40
2022-09-23T12:25:15.431Z,26.50
2022-09-23T12:28:13.025Z,26.50
2022-09-23T12:31:06.152Z,26.70
2022-09-23T12:33:59.844Z,26.70
2022-09-23T12:36:51.789Z,26.50
2022-09-23T12:39:43.858Z,26.20
2022-09-23T12:42:34.446Z,26.00
2022-09-23T12:45:43.175Z,26.20
2022-09-23T12:49:00.679Z,26.00
2022-09-23T12:52:15.416Z,26.20
2022-09-23T12:55:45.612Z,26.40
2022-09-23T12:59:02.343Z,26.60
2022-09-23T13:01:55.688Z,26.70
2022-09-23T13:05:20.755Z,26.80
2022-09-23T13:08:14.669Z,26.90
2022-09-23T13:11:07.641Z,26.60
2022-09-23T13:13:57.994Z,26.40
2022-09-23T13:16:47.991Z,26.20
2022-09-23T13:19:48.193Z,26.20
2022-09-23T13:23:14.403Z,26.30
2022-09-23T13:26:11.445Z,26.30
2022-09-23T13:29:01.731Z,26.20
2022-09-23T13:31:51.428Z,26.10
2022-09-23T13:37:45.228Z,25.70
2022-09-23T13:40:36.137Z,25.70
2022-09-23T13:43:31.925Z,25.60
2022-09-23T13:46:23.165Z,25.60
2022-09-23T13:49:24.707Z,25.60
2022-09-23T13:52:26.815Z,25.60
2022-09-23T13:55:30.371Z,25.60
2022-09-23T13:58:21.901Z,25.60
2022-09-23T14:01:23.803Z,25.60
2022-09-23T14:04:26.179Z,25.60
2022-09-23T14:07:19.103Z,25.60
2022-09-23T14:10:10.050Z,25.60
2022-09-23T14:13:02.909Z,25.50
2022-09-23T14:15:53.875Z,25.30
2022-09-23T14:18:46.699Z,25.10
2022-09-23T14:21:37.547Z,25.00
2022-09-23T14:24:33.213Z,24.80
2022-09-23T14:27:28.769Z,24.70
2022-09-23T14:30:19.677Z,24.70
2022-09-23T14:33:11.966Z,24.60
2022-09-23T14:36:06.991Z,24.60
2022-09-23T14:39:02.433Z,24.60
2022-09-23T14:41:52.103Z,24.60
2022-09-23T14:44:41.505Z,24.70
2022-09-23T14:47:33.260Z,24.70
2022-09-23T14:50:40.831Z,24.70
2022-09-23T14:53:42.611Z,24.70
2022-09-23T14:56:43.977Z,24.80
2022-09-23T14:59:36.123Z,24.80
2022-09-23T15:02:35.336Z,24.70
2022-09-23T15:05:32.616Z,24.70
2022-09-23T15:08:25.435Z,24.70
2022-09-23T15:11:14.220Z,24.70
2022-09-23T15:14:33.152Z,24.60
2022-09-23T15:17:25.577Z,24.60
2022-09-23T15:20:25.017Z,24.40
2022-09-23T15:23:35.774Z,24.40
2022-09-23T15:26:26.449Z,24.30
2022-09-23T15:29:15.574Z,24.20
2022-09-23T15:32:08.594Z,24.20
2022-09-23T15:43:28.399Z,23.70
2022-09-23T15:46:20.762Z,23.70
2022-09-23T15:49:16.437Z,23.50
2022-09-23T15:52:07.224Z,23.50
2022-09-23T15:57:47.828Z,23.40
2022-09-23T16:00:37.969Z,23.30
2022-09-23T16:06:20.713Z,23.10
2022-09-23T16:09:10.501Z,23.00
2022-09-23T16:12:02.798Z,22.90
2022-09-23T16:14:51.642Z,22.80
2022-09-23T16:17:42.101Z,22.70
2022-09-23T16:20:31.870Z,22.70
2022-09-23T16:23:37.776Z,22.50
2022-09-23T16:26:29.856Z,22.60
2022-09-23T16:37:48.908Z,22.10
2022-09-23T16:54:54.546Z,21.80
2022-09-23T16:57:44.134Z,21.80
2022-09-23T17:00:50.266Z,21.70
2022-09-23T17:03:43.166Z,21.70
2022-09-23T19:07:57.968Z,20.50
2022-09-23T19:10:58.106Z,20.40
2022-09-23T19:13:49.739Z,20.40
2022-09-23T19:16:42.125Z,20.40
2022-09-23T19:19:33.166Z,20.40
2022-09-23T19:22:27.701Z,20.40
2022-09-23T19:25:17.621Z,20.30
2022-09-23T19:28:11.467Z,20.30
2022-09-23T19:31:11.974Z,20.10
2022-09-23T19:34:02.519Z,20.00
2022-09-23T19:36:55.284Z,20.00
2022-09-23T19:39:49.255Z,19.90
2022-09-23T19:42:39.726Z,19.90
2022-09-23T19:45:29.531Z,19.80
2022-09-23T19:48:19.972Z,19.70
2022-09-23T19:51:14.145Z,19.60
2022-09-23T19:54:06.973Z,19.50
2022-09-23T19:56:59.486Z,19.30
2022-09-23T19:59:57.262Z,19.30
2022-09-23T20:02:54.637Z,19.20
2022-09-23T20:05:56.654Z,19.10
2022-09-23T20:08:47.822Z,19.20
2022-09-23T20:11:40.609Z,19.20
2022-09-23T20:14:35.710Z,19.10
2022-09-23T20:17:29.771Z,19.10
2022-09-23T20:20:24.421Z,19.10
2022-09-23T20:23:16.963Z,18.90
2022-09-23T20:26:28.127Z,18.60
2022-09-23T20:29:21.160Z,18.60
2022-09-23T20:32:17.257Z,18.50
2022-09-23T20:35:10.345Z,18.60
2022-09-23T20:38:07.861Z,18.80
2022-09-23T20:40:57.500Z,18.90
2022-09-23T20:43:49.345Z,19.00
2022-09-23T20:46:44.126Z,18.90
2022-09-23T20:49:38.583Z,18.80
2022-09-23T20:52:30.164Z,18.80
2022-09-23T20:55:21.933Z,18.60
2022-09-23T20:58:12.449Z,18.70
2022-09-23T21:01:03.896Z,18.70
2022-09-23T21:03:56.006Z,18.80
2022-09-23T21:06:45.565Z,18.80
2022-09-23T21:09:34.990Z,18.80
2022-09-23T21:26:20.555Z,18.80
2022-09-23T21:29:11.782Z,18.70
2022-09-23T21:32:02.046Z,18.60
2022-09-23T21:34:52.549Z,18.30
2022-09-23T21:37:43.212Z,18.10
2022-09-23T21:40:57.954Z,18.00
2022-09-23T21:43:50.052Z,18.00
2022-09-23T21:46:39.789Z,18.10
2022-09-23T21:49:29.328Z,18.20
2022-09-23T21:52:18.331Z,18.30
2022-09-23T21:55:08.411Z,18.30
2022-09-23T21:57:58.912Z,18.30
2022-09-23T22:00:50.181Z,18.20
2022-09-23T22:03:40.252Z,18.10
2022-09-23T22:06:30.846Z,18.00
2022-09-23T22:09:21.597Z,17.80
2022-09-23T22:12:13.098Z,17.70
2022-09-23T22:15:02.463Z,17.60
2022-09-23T22:17:52.959Z,17.60
2022-09-23T22:20:41.930Z,17.50
2022-09-23T22:23:30.946Z,17.50
2022-09-23T22:26:19.817Z,17.40
2022-09-23T22:29:27.595Z,17.00
2022-09-23T22:32:33.731Z,16.90
2022-09-23T22:35:24.329Z,17.00
2022-09-23T22:38:14.304Z,17.10
2022-09-23T22:41:03.956Z,17.40
2022-09-23T22:43:53.909Z,17.50
2022-09-23T22:46:43.051Z,17.60
2022-09-23T22:49:33.008Z,17.60
2022-09-23T22:52:24.763Z,17.70
2022-09-23T22:55:13.854Z,17.70
2022-09-23T22:58:21.164Z,17.70
2022-09-23T23:01:11.873Z,17.80
2022-09-23T23:04:02.759Z,17.80
2022-09-23T23:06:52.103Z,17.60
2022-09-23T23:09:44.960Z,17.60
2022-09-23T23:12:34.583Z,17.60
2022-09-23T23:15:24.053Z,17.60
2022-09-23T23:18:13.188Z,17.70
2022-09-23T23:21:10.355Z,17.60
2022-09-23T23:23:59.572Z,17.40
2022-09-23T23:26:51.451Z,17.30
2022-09-23T23:29:40.659Z,17.10
2022-09-23T23:32:29.748Z,17.20
2022-09-23T23:35:18.711Z,17.20
2022-09-23T23:38:07.923Z,17.10
2022-09-23T23:40:57.942Z,17.00
2022-09-23T23:43:50.153Z,16.90
2022-09-23T23:46:39.243Z,16.90
2022-09-23T23:49:29.235Z,16.90
2022-09-23T23:52:18.744Z,17.10
2022-09-23T23:55:08.500Z,17.20
2022-09-23T23:58:03.437Z,17.10
